createdAt,value
2023-05-19T01:44:08.081Z,10.90
2023-05-19T01:46:54.584Z,10.80
2023-05-19T01:49:27.618Z,10.60
2023-05-19T01:51:59.838Z,10.20
2023-05-19T01:54:34.464Z,10.20
2023-05-19T01:57:15.542Z,10.10
2023-05-19T01:59:56.927Z,10.10
2023-05-19T02:02:36.942Z,10.10
2023-05-19T06:46:38.882Z,11.30
2023-05-19T06:49:18.073Z,11.70
2023-05-19T06:51:51.651Z,11.90
2023-05-19T06:54:23.924Z,11.90
2023-05-19T06:56:54.720Z,11.90
2023-05-19T06:59:26.025Z,11.90
2023-05-19T07:02:03.205Z,11.70
2023-05-19T07:04:34.963Z,11.70
2023-05-19T07:07:13.581Z,11.80
2023-05-19T07:53:55.572Z,14.60
2023-05-19T07:56:31.525Z,14.70
2023-05-19T07:59:02.758Z,15.00
2023-05-19T08:01:32.693Z,15.30
2023-05-19T08:04:12.706Z,15.40
2023-05-19T08:06:46.336Z,15.20
2023-05-19T08:09:17.981Z,14.30
2023-05-19T08:11:52.743Z,14.80
2023-05-19T09:55:41.377Z,17.30
2023-05-19T09:58:20.593Z,17.60
2023-05-19T10:00:52.555Z,17.10
2023-05-19T10:03:39.585Z,17.50
2023-05-19T10:06:13.773Z,18.50
2023-05-19T10:08:46.559Z,19.60
2023-05-19T10:11:29.794Z,19.20
2023-05-19T10:13:59.918Z,18.20
2023-05-19T10:16:42.814Z,17.70
2023-05-19T16:17:21.153Z,19.60
2023-05-19T16:19:52.968Z,19.40
2023-05-19T16:22:25.194Z,19.80
2023-05-19T16:25:01.138Z,20.40
2023-05-19T16:27:33.318Z,20.40
2023-05-19T16:30:12.469Z,20.50
2023-05-19T16:32:47.490Z,20.50
2023-05-19T16:35:17.620Z,20.40
2023-05-19T16:37:53.459Z,20.30
2023-05-19T19:57:49.714Z,16.40
2023-05-19T20:00:19.224Z,16.40
2023-05-19T20:03:04.598Z,16.30
2023-05-19T20:05:35.222Z,16.20
2023-05-19T20:08:04.216Z,16.00
2023-05-19T20:10:33.775Z,16.00
2023-05-19T20:13:03.946Z,16.10
2023-05-19T20:34:17.288Z,15.50
2023-05-19T20:36:46.823Z,15.90
2023-05-19T20:39:15.492Z,15.60
2023-05-19T20:41:44.487Z,15.30
2023-05-19T20:44:13.086Z,15.10
2023-05-19T20:46:43.204Z,14.50
2023-05-19T20:49:12.287Z,14.60
2023-05-19T20:51:42.195Z,14.80
2023-05-19T20:54:13.664Z,14.60
